Time;durP1;ratioP1;P1;durP2;ratioP2;P2;SDS_P1;SDS_P2;PMS_P1;PMS_P2;Temp;Humidity;BMP_temperature;BMP_pressure;BME280_temperature;BME280_humidity;BME280_pressure;Samples;Min_cycle;Max_cycle;Signal;HPM_P1;HPM_P2
2020/12/29 00:00:01;;;;;;;1999.90;999.90;;;2.00;99.90;;;;;;5059870;28;20177;-80
2020/12/29 00:02:30;;;;;;;1999.90;999.90;;;2.00;99.90;;;;;;5059632;28;20192;-80
2020/12/29 00:04:56;;;;;;;1999.90;999.90;;;2.00;99.90;;;;;;5041067;28;20173;-80
2020/12/29 00:07:21;;;;;;;1999.90;999.90;;;2.00;99.90;;;;;;5041947;28;20665;-80
2020/12/29 00:09:47;;;;;;;1999.90;999.90;;;1.90;99.90;;;;;;5059249;28;20251;-80
2020/12/29 00:12:13;;;;;;;1999.90;999.90;;;1.90;99.90;;;;;;5041835;28;20176;-80
2020/12/29 00:14:38;;;;;;;1999.90;999.90;;;1.90;99.90;;;;;;5041735;28;20176;-80
2020/12/29 00:17:04;;;;;;;1999.90;999.90;;;1.80;99.90;;;;;;5059719;28;20214;-80
2020/12/29 00:19:30;;;;;;;1999.90;999.90;;;1.80;99.90;;;;;;5041565;28;20242;-80
2020/12/29 00:21:56;;;;;;;1999.90;999.90;;;1.90;99.90;;;;;;5058814;28;20239;-80
2020/12/29 00:24:22;;;;;;;1999.90;999.90;;;1.90;99.90;;;;;;5041518;28;20998;-80
2020/12/29 00:26:50;;;;;;;1999.90;999.90;;;1.80;99.90;;;;;;5041420;28;20407;-80
2020/12/29 00:29:16;;;;;;;1999.90;999.90;;;1.90;99.90;;;;;;5059082;28;20175;-80
2020/12/29 00:31:42;;;;;;;1999.90;999.90;;;1.90;99.90;;;;;;5040612;28;20609;-80
2020/12/29 00:34:10;;;;;;;1999.90;999.90;;;1.90;99.90;;;;;;5059162;28;20160;-80
2020/12/29 00:36:39;;;;;;;1999.90;999.90;;;1.90;99.90;;;;;;5058943;28;20402;-80
2020/12/29 00:39:05;;;;;;;1999.90;999.90;;;2.00;99.90;;;;;;5040645;28;20168;-80
2020/12/29 00:41:31;;;;;;;1999.90;999.90;;;2.00;99.90;;;;;;5041301;28;20161;-80
2020/12/29 00:43:56;;;;;;;1999.90;999.90;;;2.00;99.90;;;;;;5040643;28;20176;-80
2020/12/29 00:46:22;;;;;;;1999.90;999.90;;;2.10;99.90;;;;;;5041408;28;20176;-80
2020/12/29 00:48:49;;;;;;;1999.90;999.90;;;2.20;99.90;;;;;;5059653;28;20402;-80
2020/12/29 00:51:20;;;;;;;1999.90;999.90;;;2.30;99.90;;;;;;5041349;28;20431;-80
2020/12/29 00:53:46;;;;;;;1999.90;999.90;;;2.40;99.90;;;;;;5040962;28;20662;-80
2020/12/29 00:56:15;;;;;;;1999.90;999.90;;;2.50;99.90;;;;;;5040098;28;20263;-80
2020/12/29 00:58:44;;;;;;;1999.90;999.90;;;2.50;99.90;;;;;;5057911;28;20179;-80
2020/12/29 01:01:10;;;;;;;1999.90;999.90;;;2.50;99.90;;;;;;5040028;28;20286;-79
2020/12/29 01:03:38;;;;;;;1999.90;999.90;;;2.50;99.90;;;;;;5058115;28;20165;-79
2020/12/29 01:06:06;;;;;;;1999.90;999.90;;;2.60;99.90;;;;;;5058444;28;20214;-79
2020/12/29 01:08:32;;;;;;;1999.90;999.90;;;2.60;99.90;;;;;;5040004;28;20643;-79
2020/12/29 01:10:58;;;;;;;1999.90;999.90;;;2.60;99.90;;;;;;5040584;28;20183;-79
2020/12/29 01:13:24;;;;;;;1999.90;999.90;;;2.70;99.90;;;;;;5040684;28;20168;-80
2020/12/29 01:15:51;;;;;;;1999.90;999.90;;;2.70;99.90;;;;;;5039996;28;20195;-80
2020/12/29 01:18:21;;;;;;;1999.90;999.90;;;2.80;99.90;;;;;;5039754;28;20490;-80
2020/12/29 01:20:48;;;;;;;1999.90;999.90;;;2.80;99.90;;;;;;5058124;28;20203;-80
2020/12/29 01:23:14;;;;;;;1999.90;999.90;;;2.80;99.90;;;;;;5039998;28;20539;-80
2020/12/29 01:25:42;;;;;;;1999.90;999.90;;;2.90;99.90;;;;;;5057688;28;20168;-80
2020/12/29 01:28:09;;;;;;;1999.90;999.90;;;2.80;99.90;;;;;;5058474;28;20160;-80
2020/12/29 01:30:35;;;;;;;1999.90;999.90;;;2.80;99.90;;;;;;5058334;28;20275;-80
2020/12/29 01:33:01;;;;;;;1999.90;999.90;;;2.90;99.90;;;;;;5039812;28;20207;-80
2020/12/29 01:35:27;;;;;;;1999.90;999.90;;;2.90;99.90;;;;;;5130438;23;20259;-80
2020/12/29 01:37:53;;;;;;;1999.90;999.90;;;2.90;99.90;;;;;;5060424;28;20160;-80
2020/12/29 01:40:18;;;;;;;1999.90;999.90;;;2.90;99.90;;;;;;5060009;28;20215;-80
2020/12/29 01:42:45;;;;;;;1999.90;999.90;;;3.00;99.90;;;;;;5126195;23;20207;-80
2020/12/29 01:45:13;;;;;;;1999.90;999.90;;;3.00;99.90;;;;;;5205257;22;20199;-80
2020/12/29 01:47:41;;;;;;;1999.90;999.90;;;3.00;99.90;;;;;;5136093;23;20227;-80
2020/12/29 01:50:15;;;;;;;1999.90;999.90;;;3.00;99.90;;;;;;5077670;28;20172;-80
2020/12/29 01:52:41;;;;;;;1999.90;999.90;;;3.00;99.90;;;;;;5060362;28;20187;-80
2020/12/29 01:55:09;;;;;;;1999.90;999.90;;;3.00;99.90;;;;;;5059535;28;20241;-80
2020/12/29 01:57:36;;;;;;;1999.90;999.90;;;3.10;99.90;;;;;;5077959;28;20402;-80
2020/12/29 02:00:09;;;;;;;1999.90;999.90;;;3.10;99.90;;;;;;5151097;22;20678;-86
2020/12/29 02:02:36;;;;;;;1999.90;999.90;;;3.10;99.90;;;;;;5058579;28;20171;-85
2020/12/29 02:05:03;;;;;;;1999.90;999.90;;;3.10;99.90;;;;;;5075001;28;20638;-86
2020/12/29 02:07:30;;;;;;;1999.90;999.90;;;3.10;99.90;;;;;;5075348;28;20316;-85
2020/12/29 02:09:56;;;;;;;1999.90;999.90;;;3.10;99.90;;;;;;5057228;28;20171;-86
2020/12/29 02:12:27;;;;;;;1999.90;999.90;;;3.20;99.90;;;;;;5075386;28;20611;-86
2020/12/29 02:14:54;;;;;;;1999.90;999.90;;;3.20;99.90;;;;;;5075064;28;20164;-85
2020/12/29 02:17:20;;;;;;;1999.90;999.90;;;3.20;99.90;;;;;;5075471;28;20203;-86
2020/12/29 02:19:46;;;;;;;1999.90;999.90;;;3.20;99.90;;;;;;5074735;28;20558;-85
2020/12/29 02:22:17;;;;;;;1999.90;999.90;;;3.30;99.90;;;;;;5079132;28;20434;-86
2020/12/29 02:24:53;;;;;;;1999.90;999.90;;;3.30;99.90;;;;;;5080103;28;20153;-86
2020/12/29 02:27:19;;;;;;;1999.90;999.90;;;3.30;99.90;;;;;;5080109;28;20603;-86
2020/12/29 02:29:46;;;;;;;1999.90;999.90;;;3.30;99.90;;;;;;5079160;28;20168;-85
2020/12/29 02:32:11;;;;;;;1999.90;999.90;;;3.30;99.90;;;;;;5077921;28;20247;-85
2020/12/29 02:34:38;;;;;;;1999.90;999.90;;;3.30;99.90;;;;;;5077586;28;20598;-85
2020/12/29 02:37:05;;;;;;;1999.90;999.90;;;3.30;99.90;;;;;;5078102;28;20708;-85
2020/12/29 02:39:33;;;;;;;1999.90;999.90;;;3.30;99.90;;;;;;5077941;28;20708;-85
2020/12/29 02:41:59;;;;;;;1999.90;999.90;;;3.30;99.90;;;;;;5059802;28;20164;-85
2020/12/29 02:44:24;;;;;;;1999.90;999.90;;;3.30;99.90;;;;;;5060045;28;20168;-85
2020/12/29 02:46:50;;;;;;;1999.90;999.90;;;3.30;99.90;;;;;;5059630;28;20459;-84
2020/12/29 02:49:17;;;;;;;1999.90;999.90;;;3.30;99.90;;;;;;5077528;28;20164;-84
2020/12/29 02:51:43;;;;;;;1999.90;999.90;;;3.30;99.90;;;;;;5077581;28;20398;-85
2020/12/29 02:54:18;;;;;;;1999.90;999.90;;;3.20;99.90;;;;;;5060412;28;20217;-84
2020/12/29 02:56:45;;;;;;;1999.90;999.90;;;3.20;99.90;;;;;;5077276;28;20230;-85
2020/12/29 02:59:11;;;;;;;1999.90;999.90;;;3.20;99.90;;;;;;5059280;28;20184;-84
2020/12/29 03:01:37;;;;;;;1999.90;999.90;;;3.20;99.90;;;;;;5059281;28;20194;-84
2020/12/29 03:04:03;;;;;;;1999.90;999.90;;;3.20;99.90;;;;;;5077030;28;20627;-85
2020/12/29 03:06:29;;;;;;;1999.90;999.90;;;3.20;99.90;;;;;;5077190;28;20156;-85
2020/12/29 03:08:55;;;;;;;1999.90;999.90;;;3.10;99.90;;;;;;5077360;28;20396;-84
2020/12/29 03:11:31;;;;;;;1999.90;999.90;;;3.10;99.90;;;;;;5077106;28;20168;-85
2020/12/29 03:13:59;;;;;;;1999.90;999.90;;;3.00;99.90;;;;;;5077022;28;20164;-84
2020/12/29 03:16:26;;;;;;;1999.90;999.90;;;3.00;99.90;;;;;;5058714;28;20172;-85
2020/12/29 03:18:52;;;;;;;1999.90;999.90;;;2.90;99.90;;;;;;5058790;28;20171;-84
2020/12/29 03:21:18;;;;;;;1999.90;999.90;;;2.90;99.90;;;;;;5058521;28;20226;-84
2020/12/29 03:23:44;;;;;;;1999.90;999.90;;;2.80;99.90;;;;;;5076826;28;20168;-84
2020/12/29 03:26:10;;;;;;;1999.90;999.90;;;2.80;99.90;;;;;;5058629;28;20239;-84
2020/12/29 03:28:37;;;;;;;1999.90;999.90;;;2.70;99.90;;;;;;5076921;28;20217;-84
2020/12/29 03:31:04;;;;;;;1999.90;999.90;;;2.60;99.90;;;;;;5076968;28;20402;-84
2020/12/29 03:33:30;;;;;;;1999.90;999.90;;;2.50;99.90;;;;;;5076163;28;20171;-85
2020/12/29 03:35:55;;;;;;;1999.90;999.90;;;2.50;99.90;;;;;;5058446;28;20167;-83
2020/12/29 03:38:22;;;;;;;1999.90;999.90;;;2.40;99.90;;;;;;5058720;28;20168;-85
2020/12/29 03:40:48;;;;;;;1999.90;999.90;;;2.40;99.90;;;;;;5075957;28;20263;-84
2020/12/29 03:43:15;;;;;;;1999.90;999.90;;;2.30;99.90;;;;;;5076777;28;20623;-84
2020/12/29 03:45:45;;;;;;;1999.90;999.90;;;2.30;99.90;;;;;;5058355;28;20171;-85
2020/12/29 03:48:12;;;;;;;1999.90;999.90;;;2.30;99.90;;;;;;5076646;28;20164;-84
2020/12/29 03:50:38;;;;;;;1999.90;999.90;;;2.30;99.90;;;;;;5076647;28;20159;-84
2020/12/29 03:53:05;;;;;;;1999.90;999.90;;;2.20;99.90;;;;;;5076349;28;20178;-84
2020/12/29 03:55:31;;;;;;;1999.90;999.90;;;2.10;99.90;;;;;;5058185;28;20164;-85
2020/12/29 03:57:57;;;;;;;1999.90;999.90;;;2.10;99.90;;;;;;5076007;28;20164;-84
2020/12/29 04:00:22;;;;;;;1999.90;999.90;;;2.00;99.90;;;;;;5076462;28;20200;-84
2020/12/29 04:02:48;;;;;;;1999.90;999.90;;;2.00;99.90;;;;;;5077069;28;20156;-84
2020/12/29 04:05:15;;;;;;;1999.90;999.90;;;2.00;99.90;;;;;;5058386;28;20233;-84
2020/12/29 04:07:40;;;;;;;1999.90;999.90;;;2.00;99.90;;;;;;5057891;28;20160;-83
2020/12/29 04:10:09;;;;;;;1999.90;999.90;;;1.90;99.90;;;;;;5058365;28;20222;-84
2020/12/29 04:12:35;;;;;;;1999.90;999.90;;;1.90;99.90;;;;;;5076496;28;20175;-84
2020/12/29 04:15:00;;;;;;;1999.90;999.90;;;1.90;99.90;;;;;;5058389;28;20643;-84
2020/12/29 04:17:32;;;;;;;1999.90;999.90;;;1.90;99.90;;;;;;5075956;28;20247;-85
2020/12/29 04:19:58;;;;;;;1999.90;999.90;;;2.00;99.90;;;;;;5058051;28;20198;-84
2020/12/29 04:22:23;;;;;;;1999.90;999.90;;;2.10;99.90;;;;;;5057755;28;20167;-85
2020/12/29 04:24:49;;;;;;;1999.90;999.90;;;2.10;99.90;;;;;;5075875;28;20294;-85
2020/12/29 04:27:14;;;;;;;1999.90;999.90;;;2.20;99.90;;;;;;5075738;28;20175;-84
2020/12/29 04:29:40;;;;;;;1999.90;999.90;;;2.30;99.90;;;;;;5075837;28;20220;-84
2020/12/29 04:32:06;;;;;;;1999.90;999.90;;;2.40;99.90;;;;;;5057852;28;20167;-84
2020/12/29 04:34:31;;;;;;;1999.90;999.90;;;2.40;99.90;;;;;;5075578;28;20251;-84
2020/12/29 04:36:57;;;;;;;1999.90;999.90;;;2.40;99.90;;;;;;5058005;28;20172;-85
2020/12/29 04:39:23;;;;;;;1999.90;999.90;;;2.50;99.90;;;;;;5076099;28;20278;-84
2020/12/29 04:41:59;;;;;;;1999.90;999.90;;;2.50;99.90;;;;;;5075727;28;20528;-85
2020/12/29 04:44:26;;;;;;;1999.90;999.90;;;2.60;99.90;;;;;;5056629;28;20170;-85
2020/12/29 04:46:51;;;;;;;1999.90;999.90;;;2.50;99.90;;;;;;5057003;28;20172;-84
2020/12/29 04:49:17;;;;;;;1999.90;999.90;;;2.50;99.90;;;;;;5075544;28;20160;-85
2020/12/29 04:51:45;;;;;;;1999.90;999.90;;;2.50;99.90;;;;;;5075052;28;20257;-84
2020/12/29 04:54:14;;;;;;;1999.90;999.90;;;2.50;99.90;;;;;;5075026;28;20402;-85
2020/12/29 04:56:41;;;;;;;1999.90;999.90;;;2.50;99.90;;;;;;5075242;28;20530;-85
2020/12/29 04:59:06;;;;;;;1999.90;999.90;;;2.60;99.90;;;;;;5056975;28;20191;-85
2020/12/29 05:01:34;;;;;;;1999.90;999.90;;;2.70;99.90;;;;;;5075323;28;20144;-85
2020/12/29 05:04:00;;;;;;;1999.90;999.90;;;2.70;99.90;;;;;;5075038;28;20627;-85
2020/12/29 05:06:26;;;;;;;1999.90;999.90;;;2.60;99.90;;;;;;5057235;28;20166;-84
2020/12/29 05:08:53;;;;;;;1999.90;999.90;;;2.60;99.90;;;;;;5075955;28;20722;-85
2020/12/29 05:11:22;;;;;;;1999.90;999.90;;;2.50;99.90;;;;;;5057332;28;20682;-84
2020/12/29 05:13:48;;;;;;;1999.90;999.90;;;2.50;99.90;;;;;;5056926;28;20218;-85
2020/12/29 05:16:15;;;;;;;1999.90;999.90;;;2.50;99.90;;;;;;5074931;28;20186;-84
2020/12/29 05:18:42;;;;;;;1999.90;999.90;;;2.60;99.90;;;;;;5075093;28;20166;-85
2020/12/29 05:21:08;;;;;;;1999.90;999.90;;;2.60;99.90;;;;;;5075182;28;20183;-85
2020/12/29 05:23:35;;;;;;;1999.90;999.90;;;2.60;99.90;;;;;;5056896;28;20168;-85
2020/12/29 05:26:05;;;;;;;1999.90;999.90;;;2.60;99.90;;;;;;5074703;28;20687;-85
2020/12/29 05:28:31;;;;;;;1999.90;999.90;;;2.70;99.90;;;;;;5056876;28;20172;-84
2020/12/29 05:30:59;;;;;;;1999.90;999.90;;;2.70;99.90;;;;;;5056686;28;20172;-85
2020/12/29 05:33:26;;;;;;;1999.90;999.90;;;2.80;99.90;;;;;;5075006;28;20164;-85
2020/12/29 05:35:56;;;;;;;1999.90;999.90;;;2.70;99.90;;;;;;5074573;28;20167;-85
2020/12/29 05:38:22;;;;;;;1999.90;999.90;;;2.70;99.90;;;;;;5075178;28;20239;-85
2020/12/29 05:40:49;;;;;;;1999.90;999.90;;;2.60;99.90;;;;;;5056573;28;20712;-85
2020/12/29 05:43:26;;;;;;;1999.90;999.90;;;2.60;99.90;;;;;;5074605;28;20168;-84
2020/12/29 05:45:52;;;;;;;1999.90;999.90;;;2.50;99.90;;;;;;5075890;28;20209;-85
2020/12/29 05:48:18;;;;;;;1999.90;999.90;;;2.30;99.90;;;;;;5076429;28;20630;-85
2020/12/29 05:50:43;;;;;;;1999.90;999.90;;;2.30;99.90;;;;;;5076082;28;20250;-85
2020/12/29 05:53:11;;;;;;;1999.90;999.90;;;2.30;99.90;;;;;;5059152;28;20171;-85
2020/12/29 05:55:37;;;;;;;1999.90;999.90;;;2.20;99.90;;;;;;5077811;28;20194;-85
2020/12/29 05:58:11;;;;;;;1999.90;999.90;;;2.20;99.90;;;;;;5061844;28;20172;-85
2020/12/29 06:00:38;;;;;;;1999.90;999.90;;;2.20;99.90;;;;;;5079597;28;20557;-85
2020/12/29 06:03:08;;;;;;;1999.90;999.90;;;2.10;99.90;;;;;;5079353;28;20194;-85
2020/12/29 06:05:36;;;;;;;1999.90;999.90;;;2.10;99.90;;;;;;5061586;28;20179;-85
2020/12/29 06:08:07;;;;;;;1999.90;999.90;;;2.00;99.90;;;;;;5079159;28;20631;-85
2020/12/29 06:10:36;;;;;;;1999.90;999.90;;;1.90;99.90;;;;;;5061367;28;20172;-85
2020/12/29 06:13:04;;;;;;;1999.90;999.90;;;1.90;99.90;;;;;;5061282;28;20171;-85
2020/12/29 06:15:34;;;;;;;1999.90;999.90;;;1.80;99.90;;;;;;5061016;28;20168;-85
2020/12/29 06:18:05;;;;;;;1999.90;999.90;;;1.70;99.90;;;;;;5078934;28;20630;-85
2020/12/29 06:20:39;;;;;;;1999.90;999.90;;;1.60;99.90;;;;;;5079158;28;20271;-84
2020/12/29 06:23:06;;;;;;;1999.90;999.90;;;1.50;99.90;;;;;;5060939;28;20183;-84
2020/12/29 06:25:37;;;;;;;1999.90;999.90;;;1.50;99.90;;;;;;5078734;28;20587;-84
2020/12/29 06:28:06;;;;;;;1999.90;999.90;;;1.50;99.90;;;;;;5060612;28;20186;-84
2020/12/29 06:30:33;;;;;;;1999.90;999.90;;;1.50;99.90;;;;;;5060732;28;20168;-84
2020/12/29 06:33:00;;;;;;;1999.90;999.90;;;1.50;99.90;;;;;;5060636;28;20174;-84
2020/12/29 06:35:26;;;;;;;1999.90;999.90;;;1.60;99.90;;;;;;5078787;28;20164;-84
2020/12/29 06:37:58;;;;;;;1999.90;999.90;;;1.60;99.90;;;;;;5060070;28;20186;-84
2020/12/29 06:40:29;;;;;;;1999.90;999.90;;;1.70;99.90;;;;;;5060367;28;20186;-85
2020/12/29 06:42:55;;;;;;;1999.90;999.90;;;1.80;99.90;;;;;;5061087;28;20192;-84
2020/12/29 06:45:20;;;;;;;1999.90;999.90;;;1.90;99.90;;;;;;5060788;28;20163;-85
2020/12/29 06:47:46;;;;;;;1999.90;999.90;;;2.00;99.90;;;;;;5060377;28;20737;-85
2020/12/29 06:50:31;;;;;;;1999.90;999.90;;;2.00;99.90;;;;;;5078315;28;20293;-84
2020/12/29 06:53:05;;;;;;;1999.90;999.90;;;2.20;99.90;;;;;;5078667;28;20152;-85
2020/12/29 06:55:39;;;;;;;1999.90;999.90;;;2.20;99.90;;;;;;5078865;28;20168;-84
2020/12/29 06:58:05;;;;;;;1999.90;999.90;;;2.40;99.90;;;;;;5078866;28;20187;-85
2020/12/29 07:00:33;;;;;;;1999.90;999.90;;;2.40;99.90;;;;;;5061002;28;20226;-85
2020/12/29 07:02:59;;;;;;;1999.90;999.90;;;2.50;99.90;;;;;;5079058;28;20649;-85
2020/12/29 07:05:27;;;;;;;1999.90;999.90;;;2.60;99.90;;;;;;5078679;28;20251;-85
2020/12/29 07:08:04;;;;;;;1999.90;999.90;;;2.60;99.90;;;;;;5059508;28;20202;-85
2020/12/29 07:10:33;;;;;;;1999.90;999.90;;;2.60;99.90;;;;;;5061122;28;20221;-85
2020/12/29 07:13:04;;;;;;;1999.90;999.90;;;2.70;99.90;;;;;;5078516;28;20172;-85
2020/12/29 07:15:32;;;;;;;1999.90;999.90;;;2.60;99.90;;;;;;5060730;28;20166;-85
2020/12/29 07:18:01;;;;;;;1999.90;999.90;;;2.50;99.90;;;;;;5078675;28;20160;-85
2020/12/29 07:20:31;;;;;;;1999.90;999.90;;;2.50;99.90;;;;;;5078551;28;20692;-85
2020/12/29 07:23:05;;;;;;;1999.90;999.90;;;2.40;99.90;;;;;;5078183;28;20171;-85
2020/12/29 07:25:31;;;;;;;1999.90;999.90;;;2.40;99.90;;;;;;5060338;28;20152;-85
2020/12/29 07:28:00;;;;;;;1999.90;999.90;;;2.40;99.90;;;;;;5078131;28;20156;-85
2020/12/29 07:30:30;;;;;;;1999.90;999.90;;;2.50;99.90;;;;;;5078184;28;20290;-85
2020/12/29 07:33:04;;;;;;;1999.90;999.90;;;2.50;99.90;;;;;;5059917;28;20305;-85
2020/12/29 07:35:32;;;;;;;1999.90;999.90;;;2.50;99.90;;;;;;5078469;28;20632;-85
2020/12/29 07:38:11;;;;;;;1999.90;999.90;;;2.50;99.90;;;;;;5078038;28;20168;-85
2020/12/29 07:40:37;;;;;;;1999.90;999.90;;;2.50;99.90;;;;;;5078220;28;20187;-85
2020/12/29 07:43:04;;;;;;;1999.90;999.90;;;2.60;99.90;;;;;;5078662;28;20164;-85
2020/12/29 07:45:30;;;;;;;1999.90;999.90;;;2.70;99.90;;;;;;5078112;28;20160;-85
2020/12/29 07:48:02;;;;;;;1999.90;999.90;;;2.70;99.90;;;;;;5060156;28;20195;-85
2020/12/29 07:50:28;;;;;;;1999.90;999.90;;;2.70;99.90;;;;;;5078248;28;20157;-85
2020/12/29 07:53:04;;;;;;;1999.90;999.90;;;2.80;99.90;;;;;;5078786;28;20175;-85
2020/12/29 07:55:30;;;;;;;1999.90;999.90;;;2.80;99.90;;;;;;5078727;28;20522;-85
2020/12/29 07:58:01;;;;;;;1999.90;999.90;;;2.90;99.90;;;;;;5079190;28;20175;-86
2020/12/29 08:00:27;;;;;;;1999.90;999.90;;;2.90;99.90;;;;;;5139516;23;20258;-79
2020/12/29 08:03:00;;;;;;;1999.90;999.90;;;2.80;99.90;;;;;;5062111;28;20167;-80
2020/12/29 08:05:29;;;;;;;1999.90;999.90;;;2.90;99.90;;;;;;5078971;28;20893;-79
2020/12/29 08:08:15;;;;;;;1999.90;999.90;;;2.90;99.90;;;;;;5079781;28;20160;-80
2020/12/29 08:10:46;;;;;;;1999.90;999.90;;;2.90;99.90;;;;;;5079655;28;20189;-79
2020/12/29 08:13:14;;;;;;;1999.90;999.90;;;2.80;99.90;;;;;;5079424;28;20160;-80
2020/12/29 08:15:41;;;;;;;1999.90;999.90;;;2.80;99.90;;;;;;5062090;28;20654;-79
2020/12/29 08:18:18;;;;;;;1999.90;999.90;;;2.90;99.90;;;;;;5061938;28;20195;-79
2020/12/29 08:20:55;;;;;;;1999.90;999.90;;;2.90;99.90;;;;;;5080215;28;20211;-79
2020/12/29 08:23:28;;;;;;;1999.90;999.90;;;3.00;99.90;;;;;;5061716;28;20175;-79
2020/12/29 08:25:59;;;;;;;1999.90;999.90;;;3.00;99.90;;;;;;5079376;28;20168;-78
2020/12/29 08:28:27;;;;;;;1999.90;999.90;;;3.10;99.90;;;;;;5061468;28;20160;-78
2020/12/29 08:31:04;;;;;;;1999.90;999.90;;;3.10;99.90;;;;;;5078230;28;20167;-80
2020/12/29 08:33:35;;;;;;;1999.90;999.90;;;3.20;99.90;;;;;;5060477;28;20167;-79
2020/12/29 08:36:07;;;;;;;1999.90;999.90;;;3.30;99.90;;;;;;5061962;28;20209;-78
2020/12/29 08:38:39;;;;;;;1999.90;999.90;;;3.20;99.90;;;;;;5079328;28;20248;-80
2020/12/29 08:41:05;;;;;;;1999.90;999.90;;;3.20;99.90;;;;;;5061094;28;20196;-79
2020/12/29 08:43:43;;;;;;;1999.90;999.90;;;3.20;99.90;;;;;;5079076;28;20160;-79
2020/12/29 08:46:14;;;;;;;1999.90;999.90;;;3.30;99.90;;;;;;5061350;28;20190;-79
2020/12/29 08:48:51;;;;;;;1999.90;999.90;;;3.30;99.90;;;;;;5062151;28;20170;-79
2020/12/29 08:51:20;;;;;;;1999.90;999.90;;;3.30;99.90;;;;;;5079415;28;20176;-79
2020/12/29 08:53:49;;;;;;;1999.90;999.90;;;3.30;99.90;;;;;;5060609;28;20176;-79
2020/12/29 08:56:30;;;;;;;1999.90;999.90;;;3.30;99.90;;;;;;5079278;28;20213;-79
2020/12/29 08:58:56;;;;;;;1999.90;999.90;;;3.40;99.90;;;;;;5061531;28;20270;-80
2020/12/29 09:01:31;;;;;;;1999.90;999.90;;;3.40;99.90;;;;;;5078729;28;20230;-79
2020/12/29 09:03:57;;;;;;;1999.90;999.90;;;3.50;99.90;;;;;;5060815;28;20401;-79
2020/12/29 09:06:23;;;;;;;1999.90;999.90;;;3.50;99.90;;;;;;5079503;28;20658;-79
2020/12/29 09:08:49;;;;;;;1999.90;999.90;;;3.60;99.90;;;;;;5061024;28;20430;-79
2020/12/29 09:11:15;;;;;;;1999.90;999.90;;;3.60;99.90;;;;;;5061078;28;20198;-79
2020/12/29 09:14:05;;;;;;;1999.90;999.90;;;3.60;99.90;;;;;;5061116;28;20406;-79
2020/12/29 09:16:32;;;;;;;1999.90;999.90;;;3.70;99.90;;;;;;5078512;28;20160;-79
2020/12/29 09:19:00;;;;;;;1999.90;999.90;;;3.70;99.90;;;;;;5060639;28;20183;-80
2020/12/29 09:21:51;;;;;;;1999.90;999.90;;;3.70;99.90;;;;;;5061370;28;20192;-79
2020/12/29 09:24:23;;;;;;;1999.90;999.90;;;3.60;99.90;;;;;;5055654;28;20641;-79
2020/12/29 09:26:52;;;;;;;1999.90;999.90;;;3.60;99.90;;;;;;5062311;28;20599;-79
2020/12/29 09:29:21;;;;;;;1999.90;999.90;;;3.50;99.90;;;;;;5062249;28;20168;-79
2020/12/29 09:31:53;;;;;;;1999.90;999.90;;;3.50;99.90;;;;;;5083839;28;20181;-80
2020/12/29 09:34:19;;;;;;;1999.90;999.90;;;3.50;99.90;;;;;;5083210;28;20193;-79
2020/12/29 09:36:45;;;;;;;1999.90;999.90;;;3.50;99.90;;;;;;5082884;28;20218;-79
2020/12/29 09:39:14;;;;;;;1999.90;999.90;;;3.50;99.90;;;;;;5081887;28;20172;-80
2020/12/29 09:41:50;;;;;;;1999.90;999.90;;;3.50;99.90;;;;;;5082699;28;20413;-79
2020/12/29 09:44:19;;;;;;;1999.90;999.90;;;3.70;99.90;;;;;;5064715;28;20206;-79
2020/12/29 09:46:54;;;;;;;1999.90;999.90;;;3.80;99.90;;;;;;5065489;28;20194;-79
2020/12/29 09:49:34;;;;;;;1999.90;999.90;;;3.90;99.90;;;;;;5083401;28;20606;-79
2020/12/29 09:52:06;;;;;;;1999.90;999.90;;;4.00;99.90;;;;;;5082469;28;20156;-80
2020/12/29 09:54:34;;;;;;;1999.90;999.90;;;4.00;99.90;;;;;;5064991;28;20195;-79
2020/12/29 09:57:03;;;;;;;1999.90;999.90;;;3.90;99.90;;;;;;5065349;28;20250;-80
2020/12/29 09:59:49;;;;;;;1999.90;999.90;;;4.00;99.90;;;;;;5083314;28;20187;-79
2020/12/29 10:02:21;;;;;;;1999.90;999.90;;;4.00;99.90;;;;;;5082463;28;20591;-79
2020/12/29 10:04:52;;;;;;;1999.90;999.90;;;4.10;99.90;;;;;;5082694;28;20152;-79
2020/12/29 10:07:20;;;;;;;1999.90;999.90;;;4.00;99.90;;;;;;5082405;28;20174;-80
2020/12/29 10:09:46;;;;;;;1999.90;999.90;;;4.00;99.90;;;;;;5082137;28;20164;-79
2020/12/29 10:12:14;;;;;;;1999.90;999.90;;;4.00;99.90;;;;;;5064036;28;20175;-80
2020/12/29 10:15:00;;;;;;;1999.90;999.90;;;4.10;99.90;;;;;;5064276;28;20418;-80
2020/12/29 10:17:28;;;;;;;1999.90;999.90;;;4.10;99.90;;;;;;5056781;28;20175;-80
2020/12/29 10:20:00;;;;;;;1999.90;999.90;;;4.10;99.90;;;;;;5082332;28;20187;-80
2020/12/29 10:22:26;;;;;;;1999.90;999.90;;;4.20;99.90;;;;;;5064231;28;20187;-80
2020/12/29 10:24:55;;;;;;;1999.90;999.90;;;4.30;99.90;;;;;;5063988;28;20172;-80
2020/12/29 10:27:21;;;;;;;1999.90;999.90;;;4.40;99.90;;;;;;5082116;28;20451;-80
2020/12/29 10:29:46;;;;;;;1999.90;999.90;;;4.50;99.90;;;;;;5065309;28;20237;-80
2020/12/29 10:32:12;;;;;;;1999.90;999.90;;;4.60;99.90;;;;;;5064265;28;21018;-80
2020/12/29 10:34:38;;;;;;;1999.90;999.90;;;4.60;99.90;;;;;;5064357;28;20421;-80
2020/12/29 10:37:13;;;;;;;1999.90;999.90;;;4.70;99.90;;;;;;5082526;28;20164;-80
2020/12/29 10:39:41;;;;;;;1999.90;999.90;;;4.80;99.90;;;;;;5064054;28;20459;-80
2020/12/29 10:42:07;;;;;;;1999.90;999.90;;;4.80;99.90;;;;;;5062585;28;20281;-82
2020/12/29 10:44:33;;;;;;;1999.90;999.90;;;4.90;99.90;;;;;;5081995;28;20186;-81
2020/12/29 10:47:01;;;;;;;1999.90;999.90;;;4.90;99.90;;;;;;5082666;28;20160;-82
2020/12/29 10:49:33;;;;;;;1999.90;999.90;;;5.00;99.90;;;;;;5063853;28;20398;-81
2020/12/29 10:51:59;;;;;;;1999.90;999.90;;;5.00;99.90;;;;;;5064085;28;20206;-81
2020/12/29 10:54:24;;;;;;;1999.90;999.90;;;5.00;99.90;;;;;;5081600;28;20171;-81
2020/12/29 10:57:02;;;;;;;1999.90;999.90;;;5.10;99.90;;;;;;5063616;28;20646;-81
2020/12/29 10:59:28;;;;;;;1999.90;999.90;;;5.10;99.90;;;;;;5081098;28;20455;-81
2020/12/29 11:01:58;;;;;;;1999.90;999.90;;;5.20;99.90;;;;;;5063551;28;20161;-81
2020/12/29 11:04:24;;;;;;;1999.90;999.90;;;5.10;99.90;;;;;;5064291;28;20402;-81
2020/12/29 11:06:50;;;;;;;1999.90;999.90;;;5.20;99.90;;;;;;5062981;28;20198;-81
2020/12/29 11:09:22;;;;;;;1999.90;999.90;;;5.30;99.90;;;;;;5063325;28;20410;-81
2020/12/29 11:11:48;;;;;;;1999.90;999.90;;;5.30;99.90;;;;;;5081287;28;20430;-81
2020/12/29 11:14:14;;;;;;;1999.90;999.90;;;5.40;99.90;;;;;;5062578;28;20171;-82
2020/12/29 11:16:42;;;;;;;1999.90;999.90;;;5.50;99.90;;;;;;5063499;28;20174;-81
2020/12/29 11:19:07;;;;;;;1999.90;999.90;;;5.60;99.90;;;;;;5062650;28;20426;-80
2020/12/29 11:21:36;;;;;;;1999.90;999.90;;;5.40;99.90;;;;;;5062864;28;20188;-81
2020/12/29 11:24:05;;;;;;;1999.90;999.90;;;5.50;99.90;;;;;;5063189;28;20219;-81
2020/12/29 11:26:32;;;;;;;1999.90;999.90;;;5.60;99.90;;;;;;5080635;28;20504;-81
2020/12/29 11:29:06;;;;;;;1999.90;999.90;;;5.60;99.90;;;;;;5080450;28;20162;-81
2020/12/29 11:31:32;;;;;;;1999.90;999.90;;;5.70;99.90;;;;;;5063116;28;20241;-81
2020/12/29 11:33:57;;;;;;;1999.90;999.90;;;5.70;99.90;;;;;;5080028;28;20731;-81
2020/12/29 11:36:26;;;;;;;1999.90;999.90;;;5.80;99.90;;;;;;5062366;28;20172;-80
2020/12/29 11:39:05;;;;;;;1999.90;999.90;;;5.90;99.90;;;;;;5062226;28;20168;-81
2020/12/29 11:41:35;;;;;;;1999.90;999.90;;;5.90;99.90;;;;;;5080202;28;20263;-80
2020/12/29 11:44:01;;;;;;;1999.90;999.90;;;6.00;99.90;;;;;;5079218;28;20155;-80
2020/12/29 11:46:27;;;;;;;1999.90;999.90;;;6.00;99.90;;;;;;5078930;28;20646;-79
2020/12/29 11:48:53;;;;;;;1999.90;999.90;;;6.20;99.90;;;;;;5080038;28;20159;-81
2020/12/29 11:51:21;;;;;;;1999.90;999.90;;;6.30;99.90;;;;;;5079873;28;20171;-81
2020/12/29 11:53:50;;;;;;;1999.90;999.90;;;6.20;99.90;;;;;;5061302;28;20816;-81
2020/12/29 11:56:18;;;;;;;1999.90;999.90;;;6.20;99.90;;;;;;5062010;28;20168;-81
2020/12/29 11:58:46;;;;;;;1999.90;999.90;;;6.20;99.90;;;;;;5061526;28;20601;-80
2020/12/29 12:01:16;;;;;;;1999.90;999.90;;;6.20;99.90;;;;;;5062066;28;20303;-81
2020/12/29 12:03:41;;;;;;;1999.90;999.90;;;6.10;99.90;;;;;;5079753;28;20160;-80
2020/12/29 12:06:07;;;;;;;1999.90;999.90;;;6.10;99.90;;;;;;5062107;28;20179;-80
2020/12/29 12:08:33;;;;;;;1999.90;999.90;;;6.00;99.90;;;;;;5078895;28;20163;-80
2020/12/29 12:10:59;;;;;;;1999.90;999.90;;;6.00;99.90;;;;;;5061639;28;20164;-80
2020/12/29 12:13:27;;;;;;;1999.90;999.90;;;5.90;99.90;;;;;;5079568;28;20403;-81